SondeTracker

Meteorological Radiosondes Database

Operations

Sounding was ended - last measurement: 2022-12-06 22:22:50z

MAP
About Radiosonde

Number: P4530378

Launch Site: Boulder [CO] (US)

Type: RS41

AUX: NO

Frequency: 405.300 MHz

Max Speed: 248 km/h at 11199 m

Average Speed: 138.24 km/h

Max Altitude: 22817 m

Average Ascent Speed: 4.84 m/s

Average Descent Speed: 19.64 m/s

Status: UNKNOWN

Status Changes
Launch Site Type AUX Frequency Status Finder Landing Point Description Changes made by
APRS Statistics

Received Frames: 152

First Frame [UTC]: 2022-12-06 21:02:31z

Last Frame [UTC]: 2022-12-06 22:22:50z

Receivers: WI0K

Flight Time: 01:20:19 h

Distance From First Measurement: 180.05 km

Nearest City: Sterling [CO] (US) [27.13 km]

Nearest Hunter: [0.00 km]

Ground Altitude: 1366 m

Distance from QTH: 0.00 km

APRS Data
Receiver Number Date/Time [UTC] φ λ Course [°] Speed [km/h] Altitude [m] Description
WI0KP45303782022-12-06 22:22:5040.4011-103.0526821910014Clb=-14.3m/s t=-50.8C h=11.2% p=-1.0hPa 405.300 MHz Type=RS41-SG ser=P4530378 Radiosonde
WI0KP45303782022-12-06 22:22:1940.3975-103.0646721510285Clb=-13.7m/s t=-52.3C h=11.8% p=-1.0hPa 405.300 MHz Type=RS41-SG ser=P4530378 Radiosonde
WI0KP45303782022-12-06 22:21:4840.3901-103.0856323010739Clb=-14.7m/s t=-55.1C h=13.4% p=-1.0hPa 405.300 MHz Type=RS41-SG ser=P4530378 Radiosonde
WI0KP45303782022-12-06 22:21:1740.3823-103.1076824811199Clb=-15.8m/s t=-56.4C h=9.8% p=-1.0hPa 405.300 MHz Type=RS41-SG ser=P4530378 Radiosonde
WI0KP45303782022-12-06 22:20:4640.3752-103.1316622611695Clb=-15.8m/s t=-58.2C h=7.9% p=-1.0hPa 405.300 MHz Type=RS41-SG ser=P4530378 Radiosonde
WI0KP45303782022-12-06 22:20:1540.3689-103.1517121112187Clb=-15.6m/s t=-58.8C h=4.9% p=-1.0hPa 405.300 MHz Type=RS41-SG ser=P4530378 Radiosonde
WI0KP45303782022-12-06 22:19:4440.3639-103.176518512682Clb=-15.0m/s t=-59.2C h=3.8% p=-1.0hPa 405.300 MHz Type=RS41-SG ser=P4530378 Radiosonde
WI0KP45303782022-12-06 22:19:1340.3573-103.1886721113173Clb=-16.8m/s t=-60.5C h=3.7% p=-1.0hPa 405.300 MHz Type=RS41-SG ser=P4530378 Radiosonde
WI0KP45303782022-12-06 22:18:1140.3451-103.2297118114501Clb=-21.1m/s t=-62.8C h=3.1% p=-1.0hPa 405.300 MHz Type=RS41-SG ser=P4530378 Radiosonde
WI0KP45303782022-12-06 22:17:3940.3421-103.2437817614990Clb=-21.0m/s t=-62.0C h=2.8% p=-1.0hPa 405.300 MHz Type=RS41-SG ser=P4530378 Radiosonde
WI0KP45303782022-12-06 22:17:0840.3394-103.268316115659Clb=-22.5m/s t=-60.9C h=2.5% p=-1.0hPa 405.300 MHz Type=RS41-SG ser=P4530378 Radiosonde
WI0KP45303782022-12-06 22:16:3740.3385-103.2769515016369Clb=-23.2m/s t=-59.9C h=2.2% p=-1.0hPa 405.300 MHz Type=RS41-SG ser=P4530378 Radiosonde
WI0KP45303782022-12-06 22:16:0640.3398-103.2899611717060Clb=-21.8m/s t=-59.0C h=2.0% p=-1.0hPa 405.300 MHz Type=RS41-SG ser=P4530378 Radiosonde
WI0KP45303782022-12-06 22:15:3540.3413-103.31049817760Clb=-24.0m/s t=-60.0C h=2.1% p=-1.0hPa 405.300 MHz Type=RS41-SG ser=P4530378 Radiosonde
WI0KP45303782022-12-06 22:15:0440.3426-103.3091155618462Clb=-25.1m/s t=-61.2C h=2.1% p=-1.0hPa 405.300 MHz Type=RS41-SG ser=P4530378 Radiosonde
WI0KP45303782022-12-06 22:14:3340.3438-103.312724319192Clb=-23.6m/s t=-62.9C h=2.0% p=-1.0hPa 405.300 MHz Type=RS41-SG ser=P4530378 Radiosonde
WI0KP45303782022-12-06 22:14:0240.34-103.317339119981Clb=-27.2m/s t=-67.3C h=2.3% p=-1.0hPa 405.300 MHz Type=RS41-SG ser=P4530378 Radiosonde
WI0KP45303782022-12-06 22:13:3140.3361-103.324659120773Clb=-27.5m/s t=-68.6C h=3.0% p=-1.0hPa 405.300 MHz Type=RS41-SG ser=P4530378 Radiosonde
WI0KP45303782022-12-06 22:13:0040.3349-103.3351049421692Clb=-30.7m/s t=-58.0C h=1.6% p=-1.0hPa 405.300 MHz Type=RS41-SG ser=P4530378 Radiosonde
WI0KP45303782022-12-06 22:12:2940.3372-103.341314122352Clb=-15.8m/s t=-55.0C h=1.1% p=-1.0hPa 405.300 MHz Type=RS41-SG ser=P4530378 Radiosonde
WI0KP45303782022-12-06 22:11:5840.3396-103.3431344422817Clb=-0.5m/s t=-58.8C h=1.4% p=-1.0hPa 405.300 MHz Type=RS41-SG ser=P4530378 Radiosonde
WI0KP45303782022-12-06 22:11:2740.342-103.3461345022640Clb=5.3m/s t=-57.2C h=1.3% p=-1.0hPa 405.300 MHz Type=RS41-SG ser=P4530378 Radiosonde
WI0KP45303782022-12-06 22:10:5640.3443-103.3491323922448Clb=5.1m/s t=-55.4C h=1.2% p=-1.0hPa 405.300 MHz Type=RS41-SG ser=P4530378 Radiosonde
WI0KP45303782022-12-06 22:10:2540.3465-103.3521304122248Clb=7.3m/s t=-53.9C h=1.1% p=-1.0hPa 405.300 MHz Type=RS41-SG ser=P4530378 Radiosonde
WI0KP45303782022-12-06 22:09:5440.3489-103.3561225222046Clb=7.9m/s t=-53.4C h=1.0% p=-1.0hPa 405.300 MHz Type=RS41-SG ser=P4530378 Radiosonde
WI0KP45303782022-12-06 22:09:2240.3513-103.3621098321855Clb=5.3m/s t=-56.1C h=1.3% p=-1.0hPa 405.300 MHz Type=RS41-SG ser=P4530378 Radiosonde
WI0KP45303782022-12-06 22:08:5140.3526-103.3719510021678Clb=5.6m/s t=-59.6C h=1.5% p=-1.0hPa 405.300 MHz Type=RS41-SG ser=P4530378 Radiosonde
WI0KP45303782022-12-06 22:08:2040.3523-103.3838810921509Clb=4.3m/s t=-60.9C h=2.0% p=-1.0hPa 405.300 MHz Type=RS41-SG ser=P4530378 Radiosonde
WI0KP45303782022-12-06 22:07:4940.3516-103.3959211321360Clb=3.8m/s t=-61.8C h=2.2% p=-1.0hPa 405.300 MHz Type=RS41-SG ser=P4530378 Radiosonde
WI0KP45303782022-12-06 22:07:1840.351-103.4068012021226Clb=4.0m/s t=-65.4C h=2.6% p=-1.0hPa 405.300 MHz Type=RS41-SG ser=P4530378 Radiosonde
WI0KP45303782022-12-06 22:06:4740.3484-103.417659321091Clb=5.6m/s t=-70.1C h=3.6% p=-1.0hPa 405.300 MHz Type=RS41-SG ser=P4530378 Radiosonde
WI0KP45303782022-12-06 22:06:1640.3442-103.43737220809Clb=5.5m/s t=-69.6C h=3.3% p=-1.0hPa 405.300 MHz Type=RS41-SG ser=P4530378 Radiosonde
WI0KP45303782022-12-06 22:05:4540.3435-103.433708120743Clb=5.1m/s t=-69.3C h=3.3% p=-1.0hPa 405.300 MHz Type=RS41-SG ser=P4530378 Radiosonde
WI0KP45303782022-12-06 22:05:1440.3416-103.439677420581Clb=5.1m/s t=-67.9C h=3.0% p=-1.0hPa 405.300 MHz Type=RS41-SG ser=P4530378 Radiosonde
WI0KP45303782022-12-06 22:04:3840.3384-103.447537620380Clb=6.4m/s t=-67.6C h=2.9% p=-1.0hPa 405.300 MHz Type=RS41-SG ser=P4530378 Radiosonde
WI0KP45303782022-12-06 22:04:0740.3332-103.454358520177Clb=5.6m/s t=-67.5C h=2.8% p=-1.0hPa 405.300 MHz Type=RS41-SG ser=P4530378 Radiosonde
WI0KP45303782022-12-06 22:03:3640.3287-103.457288520046Clb=5.7m/s t=-67.4C h=2.7% p=-1.0hPa 405.300 MHz Type=RS41-SG ser=P4530378 Radiosonde
WI0KP45303782022-12-06 22:03:0440.3233-103.461207819883Clb=4.7m/s t=-66.3C h=2.5% p=-1.0hPa 405.300 MHz Type=RS41-SG ser=P4530378 Radiosonde
WI0KP45303782022-12-06 22:02:3440.3184-103.463196319708Clb=5.6m/s t=-65.0C h=2.3% p=-1.0hPa 405.300 MHz Type=RS41-SG ser=P4530378 Radiosonde
WI0KP45303782022-12-06 22:02:0240.3147-103.465354619518Clb=5.2m/s t=-63.4C h=2.0% p=-1.0hPa 405.300 MHz Type=RS41-SG ser=P4530378 Radiosonde
WI0KP45303782022-12-06 22:01:3140.312-103.469475419322Clb=7.2m/s t=-62.0C h=1.9% p=-1.0hPa 405.300 MHz Type=RS41-SG ser=P4530378 Radiosonde
WI0KP45303782022-12-06 22:01:0040.3101-103.472604119128Clb=5.3m/s t=-60.4C h=1.7% p=-1.0hPa 405.300 MHz Type=RS41-SG ser=P4530378 Radiosonde
WI0KP45303782022-12-06 22:00:2940.309-103.476783318965Clb=5.7m/s t=-59.8C h=1.7% p=-1.0hPa 405.300 MHz Type=RS41-SG ser=P4530378 Radiosonde
WI0KP45303782022-12-06 21:59:5840.309-103.481074418789Clb=6.9m/s t=-59.9C h=1.7% p=-1.0hPa 405.300 MHz Type=RS41-SG ser=P4530378 Radiosonde
WI0KP45303782022-12-06 21:59:2740.3116-103.4861255618548Clb=6.2m/s t=-60.6C h=1.9% p=-1.0hPa 405.300 MHz Type=RS41-SG ser=P4530378 Radiosonde
WI0KP45303782022-12-06 21:58:5640.3126-103.4891127618453Clb=6.7m/s t=-60.3C h=1.8% p=-1.0hPa 405.300 MHz Type=RS41-SG ser=P4530378 Radiosonde
WI0KP45303782022-12-06 21:58:2540.3139-103.496979318290Clb=5.8m/s t=-60.6C h=2.0% p=-1.0hPa 405.300 MHz Type=RS41-SG ser=P4530378 Radiosonde
WI0KP45303782022-12-06 21:57:5440.3148-103.5069411318133Clb=5.6m/s t=-60.9C h=1.9% p=-1.0hPa 405.300 MHz Type=RS41-SG ser=P4530378 Radiosonde
WI0KP45303782022-12-06 21:57:2340.3147-103.5198712617974Clb=5.7m/s t=-61.5C h=2.1% p=-1.0hPa 405.300 MHz Type=RS41-SG ser=P4530378 Radiosonde
WI0KP45303782022-12-06 21:56:5240.3148-103.5319112617823Clb=5.3m/s t=-61.2C h=2.1% p=-1.0hPa 405.300 MHz Type=RS41-SG ser=P4530378 Radiosonde
WI0KP45303782022-12-06 21:56:2140.3156-103.5439211317672Clb=5.3m/s t=-62.0C h=2.4% p=-1.0hPa 405.300 MHz Type=RS41-SG ser=P4530378 Radiosonde
WI0KP45303782022-12-06 21:54:1640.3153-103.5969312817023Clb=3.6m/s t=-62.5C h=2.6% p=-1.0hPa 405.300 MHz Type=RS41-SG ser=P4530378 Radiosonde
WI0KP45303782022-12-06 21:53:4540.3158-103.6049512616934Clb=4.0m/s t=-62.4C h=2.6% p=-1.0hPa 405.300 MHz Type=RS41-SG ser=P4530378 Radiosonde
WI0KP45303782022-12-06 21:53:1440.3171-103.6189913016791Clb=3.9m/s t=-62.1C h=2.5% p=-1.0hPa 405.300 MHz Type=RS41-SG ser=P4530378 Radiosonde
WI0KP45303782022-12-06 21:52:4340.3183-103.6349214416619Clb=4.5m/s t=-62.1C h=2.5% p=-1.0hPa 405.300 MHz Type=RS41-SG ser=P4530378 Radiosonde
WI0KP45303782022-12-06 21:52:1240.318-103.6478214616482Clb=6.2m/s t=-61.3C h=2.5% p=-1.0hPa 405.300 MHz Type=RS41-SG ser=P4530378 Radiosonde
WI0KP45303782022-12-06 21:51:4140.3161-103.6637615416311Clb=5.7m/s t=-60.9C h=2.3% p=-1.0hPa 405.300 MHz Type=RS41-SG ser=P4530378 Radiosonde
WI0KP45303782022-12-06 21:51:1040.3131-103.6777414616143Clb=6.7m/s t=-60.7C h=2.3% p=-1.0hPa 405.300 MHz Type=RS41-SG ser=P4530378 Radiosonde
WI0KP45303782022-12-06 21:50:3940.3108-103.6928114115968Clb=5.8m/s t=-60.3C h=2.4% p=-1.0hPa 405.300 MHz Type=RS41-SG ser=P4530378 Radiosonde
WI0KP45303782022-12-06 21:50:0840.3093-103.7078314815823Clb=4.3m/s t=-60.2C h=2.4% p=-1.0hPa 405.300 MHz Type=RS41-SG ser=P4530378 Radiosonde
WI0KP45303782022-12-06 21:49:3740.3075-103.7227816115692Clb=4.4m/s t=-61.3C h=2.5% p=-1.0hPa 405.300 MHz Type=RS41-SG ser=P4530378 Radiosonde
WI0KP45303782022-12-06 21:49:0640.3049-103.7387716115565Clb=4.3m/s t=-60.9C h=2.5% p=-1.0hPa 405.300 MHz Type=RS41-SG ser=P4530378 Radiosonde
WI0KP45303782022-12-06 21:48:3540.302-103.7567816115420Clb=3.2m/s t=-60.9C h=2.6% p=-1.0hPa 405.300 MHz Type=RS41-SG ser=P4530378 Radiosonde
WI0KP45303782022-12-06 21:48:0440.2987-103.7737515915272Clb=4.6m/s t=-61.7C h=2.8% p=-1.0hPa 405.300 MHz Type=RS41-SG ser=P4530378 Radiosonde
WI0KP45303782022-12-06 21:47:3340.2962-103.7867616715158Clb=5.3m/s t=-62.0C h=2.9% p=-1.0hPa 405.300 MHz Type=RS41-SG ser=P4530378 Radiosonde
WI0KP45303782022-12-06 21:47:0240.2933-103.8037717015009Clb=4.8m/s t=-63.3C h=3.2% p=-1.0hPa 405.300 MHz Type=RS41-SG ser=P4530378 Radiosonde
WI0KP45303782022-12-06 21:46:3140.2901-103.827517414852Clb=4.7m/s t=-63.3C h=3.2% p=-1.0hPa 405.300 MHz Type=RS41-SG ser=P4530378 Radiosonde
WI0KP45303782022-12-06 21:46:0040.2862-103.8367216914693Clb=4.9m/s t=-62.8C h=3.1% p=-1.0hPa 405.300 MHz Type=RS41-SG ser=P4530378 Radiosonde
WI0KP45303782022-12-06 21:45:2940.2819-103.8527116314539Clb=4.4m/s t=-61.6C h=2.8% p=-1.0hPa 405.300 MHz Type=RS41-SG ser=P4530378 Radiosonde
WI0KP45303782022-12-06 21:44:5740.2775-103.8686816714383Clb=4.4m/s t=-61.0C h=2.8% p=-1.0hPa 405.300 MHz Type=RS41-SG ser=P4530378 Radiosonde
WI0KP45303782022-12-06 21:44:2640.2732-103.8847117014226Clb=4.8m/s t=-59.9C h=2.7% p=-1.0hPa 405.300 MHz Type=RS41-SG ser=P4530378 Radiosonde
WI0KP45303782022-12-06 21:43:5540.2684-103.96617614071Clb=5.0m/s t=-59.5C h=2.5% p=-1.0hPa 405.300 MHz Type=RS41-SG ser=P4530378 Radiosonde
WI0KP45303782022-12-06 21:43:2440.2633-103.9166716913928Clb=5.4m/s t=-58.8C h=2.6% p=-1.0hPa 405.300 MHz Type=RS41-SG ser=P4530378 Radiosonde
WI0KP45303782022-12-06 21:42:5340.2557-103.9416717013712Clb=4.3m/s t=-58.5C h=2.6% p=-1.0hPa 405.300 MHz Type=RS41-SG ser=P4530378 Radiosonde
WI0KP45303782022-12-06 21:42:2240.2535-103.9486717613657Clb=4.4m/s t=-59.0C h=2.7% p=-1.0hPa 405.300 MHz Type=RS41-SG ser=P4530378 Radiosonde
WI0KP45303782022-12-06 21:41:5140.2483-103.9646717013527Clb=3.4m/s t=-58.6C h=2.7% p=-1.0hPa 405.300 MHz Type=RS41-SG ser=P4530378 Radiosonde
WI0KP45303782022-12-06 21:41:2040.2433-103.9816817813400Clb=5.1m/s t=-58.7C h=2.9% p=-1.0hPa 405.300 MHz Type=RS41-SG ser=P4530378 Radiosonde
WI0KP45303782022-12-06 21:40:4940.2377-103.9986817813266Clb=4.2m/s t=-58.2C h=3.1% p=-1.0hPa 405.300 MHz Type=RS41-SG ser=P4530378 Radiosonde
WI0KP45303782022-12-06 21:40:1840.2327-104.0157019113142Clb=4.1m/s t=-58.5C h=3.2% p=-1.0hPa 405.300 MHz Type=RS41-SG ser=P4530378 Radiosonde
WI0KP45303782022-12-06 21:39:4740.2274-104.0346719413024Clb=3.9m/s t=-59.3C h=3.6% p=-1.0hPa 405.300 MHz Type=RS41-SG ser=P4530378 Radiosonde
WI0KP45303782022-12-06 21:39:1640.2211-104.0526218312905Clb=3.8m/s t=-59.3C h=3.5% p=-1.0hPa 405.300 MHz Type=RS41-SG ser=P4530378 Radiosonde
WI0KP45303782022-12-06 21:38:4540.215-104.0686316912777Clb=5.0m/s t=-58.3C h=3.6% p=-1.0hPa 405.300 MHz Type=RS41-SG ser=P4530378 Radiosonde
WI0KP45303782022-12-06 21:38:1440.2094-104.0846516712636Clb=4.7m/s t=-57.5C h=3.6% p=-1.0hPa 405.300 MHz Type=RS41-SG ser=P4530378 Radiosonde
WI0KP45303782022-12-06 21:37:4340.2045-104.0997016912501Clb=3.4m/s t=-57.7C h=4.3% p=-1.0hPa 405.300 MHz Type=RS41-SG ser=P4530378 Radiosonde
WI0KP45303782022-12-06 21:37:1240.2008-104.1167517612365Clb=4.0m/s t=-58.1C h=5.0% p=-1.0hPa 405.300 MHz Type=RS41-SG ser=P4530378 Radiosonde
WI0KP45303782022-12-06 21:36:4140.1973-104.1337318012221Clb=3.8m/s t=-58.5C h=6.4% p=-1.0hPa 405.300 MHz Type=RS41-SG ser=P4530378 Radiosonde
WI0KP45303782022-12-06 21:36:0940.1933-104.1527220612064Clb=5.3m/s t=-58.7C h=7.7% p=-1.0hPa 405.300 MHz Type=RS41-SG ser=P4530378 Radiosonde
WI0KP45303782022-12-06 21:35:3840.1883-104.1726920711917Clb=3.9m/s t=-58.4C h=8.9% p=-1.0hPa 405.300 MHz Type=RS41-SG ser=P4530378 Radiosonde
WI0KP45303782022-12-06 21:35:0740.1832-104.1927019611782Clb=4.8m/s t=-59.0C h=11.0% p=-1.0hPa 405.300 MHz Type=RS41-SG ser=P4530378 Radiosonde
WI0KP45303782022-12-06 21:34:3640.1772-104.2126521711620Clb=3.9m/s t=-58.0C h=10.7% p=-1.0hPa 405.300 MHz Type=RS41-SG ser=P4530378 Radiosonde
WI0KP45303782022-12-06 21:34:0540.1708-104.2336922611477Clb=3.7m/s t=-57.7C h=10.7% p=-1.0hPa 405.300 MHz Type=RS41-SG ser=P4530378 Radiosonde
WI0KP45303782022-12-06 21:33:3440.1646-104.2546922411350Clb=5.0m/s t=-56.8C h=10.5% p=-1.0hPa 405.300 MHz Type=RS41-SG ser=P4530378 Radiosonde
WI0KP45303782022-12-06 21:33:0340.1587-104.2757022011216Clb=4.9m/s t=-55.7C h=9.7% p=-1.0hPa 405.300 MHz Type=RS41-SG ser=P4530378 Radiosonde
WI0KP45303782022-12-06 21:32:3240.1528-104.2966922011074Clb=5.4m/s t=-54.8C h=8.9% p=-1.0hPa 405.300 MHz Type=RS41-SG ser=P4530378 Radiosonde
WI0KP45303782022-12-06 21:32:0140.1469-104.3167021910921Clb=4.9m/s t=-53.4C h=8.2% p=-1.0hPa 405.300 MHz Type=RS41-SG ser=P4530378 Radiosonde
WI0KP45303782022-12-06 21:31:3040.1412-104.3377021510768Clb=4.7m/s t=-52.3C h=8.3% p=-1.0hPa 405.300 MHz Type=RS41-SG ser=P4530378 Radiosonde
WI0KP45303782022-12-06 21:30:5940.1354-104.3576721710616Clb=4.3m/s t=-52.1C h=9.6% p=-1.0hPa 405.300 MHz Type=RS41-SG ser=P4530378 Radiosonde
WI0KP45303782022-12-06 21:30:2840.1286-104.3776419810467Clb=3.9m/s t=-52.3C h=9.8% p=-1.0hPa 405.300 MHz Type=RS41-SG ser=P4530378 Radiosonde
WI0KP45303782022-12-06 21:29:5740.1227-104.3956920210315Clb=4.7m/s t=-51.3C h=9.8% p=-1.0hPa 405.300 MHz Type=RS41-SG ser=P4530378 Radiosonde
WI0KP45303782022-12-06 21:29:2640.1174-104.4157220210164Clb=4.4m/s t=-50.3C h=8.8% p=-1.0hPa 405.300 MHz Type=RS41-SG ser=P4530378 Radiosonde
WI0KP45303782022-12-06 21:28:5540.1127-104.4357120010028Clb=4.5m/s t=-49.8C h=8.8% p=-1.0hPa 405.300 MHz Type=RS41-SG ser=P4530378 Radiosonde
WI0KP45303782022-12-06 21:28:2440.1081-104.454732009903Clb=3.9m/s t=-49.1C h=8.8% p=-1.0hPa 405.300 MHz Type=RS41-SG ser=P4530378 Radiosonde
WI0KP45303782022-12-06 21:27:5340.1037-104.473732009789Clb=4.0m/s t=-48.5C h=8.8% p=-1.0hPa 405.300 MHz Type=RS41-SG ser=P4530378 Radiosonde
WI0KP45303782022-12-06 21:27:2140.0992-104.493732069679Clb=3.6m/s t=-47.6C h=8.2% p=-1.0hPa 405.300 MHz Type=RS41-SG ser=P4530378 Radiosonde
WI0KP45303782022-12-06 21:26:5040.0945-104.513732099567Clb=3.8m/s t=-47.2C h=8.8% p=-1.0hPa 405.300 MHz Type=RS41-SG ser=P4530378 Radiosonde
WI0KP45303782022-12-06 21:26:1940.0901-104.533752009471Clb=3.1m/s t=-47.1C h=9.5% p=-1.0hPa 405.300 MHz Type=RS41-SG ser=P4530378 Radiosonde
WI0KP45303782022-12-06 21:25:4840.0861-104.553752029375Clb=3.0m/s t=-46.6C h=9.2% p=-1.0hPa 405.300 MHz Type=RS41-SG ser=P4530378 Radiosonde
WI0KP45303782022-12-06 21:25:1740.0822-104.573752029274Clb=3.0m/s t=-46.2C h=9.3% p=-1.0hPa 405.300 MHz Type=RS41-SG ser=P4530378 Radiosonde
WI0KP45303782022-12-06 21:24:4640.0784-104.592762009168Clb=3.6m/s t=-45.6C h=9.3% p=-1.0hPa 405.300 MHz Type=RS41-SG ser=P4530378 Radiosonde
WI0KP45303782022-12-06 21:24:1540.0745-104.612762049051Clb=4.6m/s t=-45.1C h=10.2% p=-1.0hPa 405.300 MHz Type=RS41-SG ser=P4530378 Radiosonde
WI0KP45303782022-12-06 21:23:4440.0708-104.632761988922Clb=4.1m/s t=-44.8C h=14.7% p=-1.0hPa 405.300 MHz Type=RS41-SG ser=P4530378 Radiosonde
WI0KP45303782022-12-06 21:23:1340.0669-104.651751948781Clb=5.8m/s t=-43.9C h=14.0% p=-1.0hPa 405.300 MHz Type=RS41-SG ser=P4530378 Radiosonde
WI0KP45303782022-12-06 21:22:4240.0628-104.67741948625Clb=5.0m/s t=-42.7C h=15.3% p=-1.0hPa 405.300 MHz Type=RS41-SG ser=P4530378 Radiosonde
WI0KP45303782022-12-06 21:22:1140.0589-104.689741898470Clb=4.1m/s t=-42.2C h=28.6% p=-1.0hPa 405.300 MHz Type=RS41-SG ser=P4530378 Radiosonde
WI0KP45303782022-12-06 21:21:4040.0548-104.707751898302Clb=5.8m/s t=-41.5C h=58.9% p=-1.0hPa 405.300 MHz Type=RS41-SG ser=P4530378 Radiosonde
WI0KP45303782022-12-06 21:21:0940.0508-104.726741948151Clb=5.3m/s t=-40.3C h=60.7% p=-1.0hPa 405.300 MHz Type=RS41-SG ser=P4530378 Radiosonde
WI0KP45303782022-12-06 21:20:3840.0471-104.744751918005Clb=3.5m/s t=-39.1C h=63.7% p=-1.0hPa 405.300 MHz Type=RS41-SG ser=P4530378 Radiosonde
WI0KP45303782022-12-06 21:20:0640.0434-104.763741787864Clb=3.6m/s t=-38.1C h=53.6% p=-1.0hPa 405.300 MHz Type=RS41-SG ser=P4530378 Radiosonde
WI0KP45303782022-12-06 21:19:3540.0399-104.78751747726Clb=2.9m/s t=-37.1C h=49.3% p=-1.0hPa 405.300 MHz Type=RS41-SG ser=P4530378 Radiosonde
WI0KP45303782022-12-06 21:19:0440.0364-104.797751697613Clb=3.4m/s t=-36.4C h=53.7% p=-1.0hPa 405.300 MHz Type=RS41-SG ser=P4530378 Radiosonde
WI0KP45303782022-12-06 21:18:3340.033-104.813751617509Clb=2.4m/s t=-35.8C h=49.6% p=-1.0hPa 405.300 MHz Type=RS41-SG ser=P4530378 Radiosonde
WI0KP45303782022-12-06 21:18:0240.0301-104.829751567406Clb=3.6m/s t=-35.2C h=55.2% p=-1.0hPa 405.300 MHz Type=RS41-SG ser=P4530378 Radiosonde
WI0KP45303782022-12-06 21:17:3140.027-104.844721637309Clb=5.3m/s t=-34.6C h=60.1% p=-1.0hPa 405.300 MHz Type=RS41-SG ser=P4530378 Radiosonde
WI0KP45303782022-12-06 21:17:0040.0239-104.858751287171Clb=5.1m/s t=-33.8C h=56.4% p=-1.0hPa 405.300 MHz Type=RS41-SG ser=P4530378 Radiosonde
WI0KP45303782022-12-06 21:16:2940.0212-104.872781357032Clb=6.1m/s t=-33.0C h=50.8% p=-1.0hPa 405.300 MHz Type=RS41-SG ser=P4530378 Radiosonde
WI0KP45303782022-12-06 21:15:5840.0192-104.885791266921Clb=3.2m/s t=-32.3C h=51.8% p=-1.0hPa 405.300 MHz Type=RS41-SG ser=P4530378 Radiosonde
WI0KP45303782022-12-06 21:15:2740.0175-104.897791266809Clb=3.8m/s t=-31.5C h=46.5% p=-1.0hPa 405.300 MHz Type=RS41-SG ser=P4530378 Radiosonde
WI0KP45303782022-12-06 21:14:5640.0158-104.91811246688Clb=4.0m/s t=-30.5C h=48.1% p=-1.0hPa 405.300 MHz Type=RS41-SG ser=P4530378 Radiosonde
WI0KP45303782022-12-06 21:14:2540.0138-104.922761176555Clb=5.1m/s t=-29.5C h=39.5% p=-1.0hPa 405.300 MHz Type=RS41-SG ser=P4530378 Radiosonde
WI0KP45303782022-12-06 21:13:5440.0114-104.933731196404Clb=4.7m/s t=-28.1C h=33.3% p=-1.0hPa 405.300 MHz Type=RS41-SG ser=P4530378 Radiosonde
WI0KP45303782022-12-06 21:13:2340.0088-104.944731196261Clb=4.7m/s t=-27.1C h=31.1% p=-1.0hPa 405.300 MHz Type=RS41-SG ser=P4530378 Radiosonde
WI0KP45303782022-12-06 21:12:5240.0064-104.95574966073Clb=5.7m/s t=-27.0C h=71.1% p=-1.0hPa 405.300 MHz Type=RS41-SG ser=P4530378 Radiosonde
WI0KP45303782022-12-06 21:12:2140.0043-104.96472945913Clb=6.3m/s t=-25.6C h=66.4% p=-1.0hPa 405.300 MHz Type=RS41-SG ser=P4530378 Radiosonde
WI0KP45303782022-12-06 21:11:5040.0022-104.97474935738Clb=5.3m/s t=-23.9C h=58.1% p=-1.0hPa 405.300 MHz Type=RS41-SG ser=P4530378 Radiosonde
WI0KP45303782022-12-06 21:11:1940.0002-104.98274895568Clb=5.9m/s t=-22.4C h=43.2% p=-1.0hPa 405.300 MHz Type=RS41-SG ser=P4530378 Radiosonde
WI0KP45303782022-12-06 21:10:4739.9984-104.99174875397Clb=5.1m/s t=-21.0C h=10.0% p=-1.0hPa 405.300 MHz Type=RS41-SG ser=P4530378 Radiosonde
WI0KP45303782022-12-06 21:10:1639.9967-104.99978785225Clb=5.4m/s t=-20.0C h=5.3% p=-1.0hPa 405.300 MHz Type=RS41-SG ser=P4530378 Radiosonde
WI0KP45303782022-12-06 21:09:4539.9953-105.00676745054Clb=5.9m/s t=-18.7C h=5.0% p=-1.0hPa 405.300 MHz Type=RS41-SG ser=P4530378 Radiosonde
WI0KP45303782022-12-06 21:09:1439.9939-105.01376724890Clb=4.5m/s t=-17.2C h=6.1% p=-1.0hPa 405.300 MHz Type=RS41-SG ser=P4530378 Radiosonde
WI0KP45303782022-12-06 21:08:4339.9925-105.0277724709Clb=5.3m/s t=-15.8C h=15.7% p=-1.0hPa 405.300 MHz Type=RS41-SG ser=P4530378 Radiosonde
WI0KP45303782022-12-06 21:08:1239.9909-105.02875614517Clb=6.3m/s t=-14.0C h=24.8% p=-1.0hPa 405.300 MHz Type=RS41-SG ser=P4530378 Radiosonde
WI0KP45303782022-12-06 21:07:4139.989-105.03459704356Clb=7.1m/s t=-12.9C h=37.3% p=-1.0hPa 405.300 MHz Type=RS41-SG ser=P4530378 Radiosonde
WI0KP45303782022-12-06 21:07:1039.9867-105.04165704192Clb=4.6m/s t=-11.7C h=41.7% p=-1.0hPa 405.300 MHz Type=RS41-SG ser=P4530378 Radiosonde
WI0KP45303782022-12-06 21:06:3939.9845-105.04871744056Clb=3.8m/s t=-10.8C h=41.6% p=-1.0hPa 405.300 MHz Type=RS41-SG ser=P4530378 Radiosonde
WI0KP45303782022-12-06 21:06:0839.9825-105.05565703901Clb=3.4m/s t=-9.9C h=44.5% p=-1.0hPa 405.300 MHz Type=RS41-SG ser=P4530378 Radiosonde
WI0KP45303782022-12-06 21:05:3739.9807-105.06274763753Clb=5.1m/s t=-9.1C h=45.6% p=-1.0hPa 405.300 MHz Type=RS41-SG ser=P4530378 Radiosonde
WI0KP45303782022-12-06 21:05:0639.979-105.06866653604Clb=5.5m/s t=-8.3C h=48.3% p=-1.0hPa 405.300 MHz Type=RS41-SG ser=P4530378 Radiosonde
WI0KP45303782022-12-06 21:04:3539.9769-105.07460503428Clb=5.5m/s t=-7.0C h=46.3% p=-1.0hPa 405.300 MHz Type=RS41-SG ser=P4530378 Radiosonde
WI0KP45303782022-12-06 21:04:0439.9756-105.0878593248Clb=4.9m/s t=-5.8C h=44.7% p=-1.0hPa 405.300 MHz Type=RS41-SG ser=P4530378 Radiosonde
WI0KP45303782022-12-06 21:03:3339.9746-105.08680563032Clb=6.9m/s t=-3.7C h=39.4% p=-1.0hPa 405.300 MHz Type=RS41-SG ser=P4530378 Radiosonde
WI0KP45303782022-12-06 21:03:0239.9736-105.09169592865Clb=4.8m/s t=-2.3C h=-1.0% p=-1.0hPa 405.300 MHz Type=RS41-SG ser=P4530378 Radiosonde
WI0KP45303782022-12-06 21:02:3139.9726-105.09671572660Clb=7.1m/s t=-0.4C h=-1.0% p=-1.0hPa 405.300 MHz Type=RS41 ser=P4530378 Radiosonde